Time;durP1;ratioP1;P1;durP2;ratioP2;P2;SDS_P1;SDS_P2;PMS_P1;PMS_P2;Temp;Humidity;BMP_temperature;BMP_pressure;BME280_temperature;BME280_humidity;BME280_pressure;Samples;Min_cycle;Max_cycle;Signal;HPM_P1;HPM_P2
2021/11/20 00:01:50;;;;;;;24.83;14.65;;;;;;;7.83;nan;101941.59;4989380;28;20263;-76
2021/11/20 00:04:15;;;;;;;29.75;16.67;;;;;;;7.87;nan;101937.81;4989932;28;20427;-76
2021/11/20 00:06:44;;;;;;;26.98;15.13;;;;;;;7.85;nan;101929.16;4989381;28;20042;-76
2021/11/20 00:09:13;;;;;;;25.25;16.35;;;;;;;7.82;nan;101927.59;4989602;28;20035;-75
2021/11/20 00:11:41;;;;;;;24.98;15.32;;;;;;;7.83;nan;101933.69;4989711;28;20057;-76
2021/11/20 00:14:10;;;;;;;27.52;16.35;;;;;;;7.88;nan;101923.69;4997506;28;20106;-76
2021/11/20 00:16:36;;;;;;;26.27;14.73;;;;;;;7.83;nan;101913.47;4989439;28;20034;-76
2021/11/20 00:19:03;;;;;;;29.52;16.42;;;;;;;7.87;nan;101914.97;4987465;28;20394;-75
2021/11/20 00:21:34;;;;;;;25.13;14.95;;;;;;;7.86;nan;101913.28;4989821;28;20048;-76
2021/11/20 00:24:00;;;;;;;;;;;;;;;7.86;nan;101909.78;4987962;28;20130;-76
2021/11/20 00:26:33;;;;;;;26.27;15.23;;;;;;;7.87;nan;101914.13;4987556;28;19928;-76
2021/11/20 00:31:28;;;;;;;28.25;15.65;;;;;;;7.76;nan;101909.53;4968988;28;20030;-76
2021/11/20 00:33:54;;;;;;;28.60;15.98;;;;;;;7.81;nan;101911.88;4988943;28;20039;-76
2021/11/20 00:36:21;;;;;;;28.83;16.48;;;;;;;7.84;nan;101904.63;4990005;28;20105;-76
2021/11/20 00:38:47;;;;;;;25.13;15.38;;;;;;;7.76;nan;101906.91;4994036;28;20046;-76
2021/11/20 00:41:16;;;;;;;28.38;16.33;;;;;;;7.82;nan;101917.06;4997035;28;20041;-75
2021/11/20 00:43:44;;;;;;;27.73;15.70;;;;;;;7.85;nan;101906.31;5000569;28;20390;-75
2021/11/20 00:46:10;;;;;;;27.40;15.82;;;;;;;7.85;nan;101908.09;4997008;28;20442;-76
2021/11/20 00:48:36;;;;;;;30.17;16.80;;;;;;;7.87;nan;101908.84;5004402;28;20100;-76
2021/11/20 00:51:06;;;;;;;28.25;15.77;;;;;;;7.80;nan;101900.50;4993681;28;20034;-76
2021/11/20 00:53:32;;;;;;;24.42;14.48;;;;;;;7.80;nan;101897.88;4996497;28;20098;-75
2021/11/20 00:55:58;;;;;;;26.23;15.88;;;;;;;7.82;nan;101903.88;5002019;28;20042;-76
2021/11/20 00:58:24;;;;;;;27.05;16.48;;;;;;;7.81;nan;101904.81;4998845;28;20030;-75
2021/11/20 01:00:55;;;;;;;25.90;16.23;;;;;;;7.80;nan;101907.56;5002538;28;20415;-76
2021/11/20 01:03:22;;;;;;;26.85;16.33;;;;;;;7.86;nan;101913.28;5005307;28;20038;-75
2021/11/20 01:05:47;;;;;;;26.60;15.40;;;;;;;7.83;nan;101904.72;4994475;28;20045;-76
2021/11/20 01:08:15;;;;;;;27.15;15.27;;;;;;;7.82;nan;101905.69;4994334;28;20431;-76
2021/11/20 01:10:44;;;;;;;27.60;15.45;;;;;;;7.80;nan;101904.94;4993986;28;20034;-76
2021/11/20 01:13:11;;;;;;;25.92;15.00;;;;;;;7.82;nan;101905.69;4994083;28;20465;-76
2021/11/20 01:15:46;;;;;;;25.00;16.00;;;;;;;7.84;nan;101896.72;4991467;28;20081;-76
2021/11/20 01:18:12;;;;;;;24.27;14.85;;;;;;;7.85;nan;101890.50;4993135;28;20037;-76
2021/11/20 01:20:39;;;;;;;23.85;15.00;;;;;;;7.86;nan;101881.69;4994015;28;20080;-76
2021/11/20 01:23:04;;;;;;;25.60;14.75;;;;;;;7.89;nan;101893.81;4993042;28;20046;-76
2021/11/20 01:25:30;;;;;;;23.95;14.38;;;;;;;7.87;nan;101890.41;4991875;28;20042;-76
2021/11/20 01:27:56;;;;;;;24.98;14.63;;;;;;;7.85;nan;101885.25;4991321;28;20042;-75
2021/11/20 01:30:23;;;;;;;25.05;14.98;;;;;;;7.88;nan;101886.81;4994558;28;20376;-75
2021/11/20 01:32:49;;;;;;;22.60;14.50;;;;;;;7.85;nan;101884.41;4992642;28;20038;-76
2021/11/20 01:35:16;;;;;;;22.58;13.45;;;;;;;7.86;nan;101881.69;4993416;28;20053;-76
2021/11/20 01:37:42;;;;;;;22.60;14.07;;;;;;;7.82;nan;101880.19;4993861;28;20519;-76
2021/11/20 01:40:11;;;;;;;23.25;13.95;;;;;;;7.84;nan;101882.69;4991923;28;20038;-74
2021/11/20 01:42:39;;;;;;;21.98;13.10;;;;;;;7.85;nan;101879.97;4993790;28;20026;-76
2021/11/20 01:45:12;;;;;;;25.30;14.45;;;;;;;7.84;nan;101878.28;4993901;28;20352;-76
2021/11/20 01:47:52;;;;;;;21.33;13.20;;;;;;;7.80;nan;101879.44;4993597;28;20058;-76
2021/11/20 01:50:40;;;;;;;19.20;11.35;;;;;;;7.82;nan;101879.34;4993258;28;20408;-76
2021/11/20 01:53:21;;;;;;;20.58;12.57;;;;;;;7.85;nan;101876.50;4993641;28;20035;-76
2021/11/20 01:55:49;;;;;;;19.90;12.90;;;;;;;7.88;nan;101866.59;4991483;28;20324;-75
2021/11/20 01:58:35;;;;;;;20.45;12.68;;;;;;;7.92;nan;101864.63;4993233;28;20460;-76
2021/11/20 02:01:07;;;;;;;20.15;12.50;;;;;;;7.92;nan;101859.34;4993112;28;20056;-76
2021/11/20 02:03:49;;;;;;;20.70;12.35;;;;;;;7.85;nan;101847.53;4991957;28;20438;-76
2021/11/20 02:06:37;;;;;;;21.90;12.98;;;;;;;7.90;nan;101855.13;5009009;28;20076;-76
2021/11/20 02:09:08;;;;;;;20.90;12.75;;;;;;;7.88;nan;101848.16;4993474;28;20273;-76
2021/11/20 02:11:43;;;;;;;19.40;12.73;;;;;;;7.92;nan;101850.63;4991941;28;20022;-75
2021/11/20 02:14:11;;;;;;;20.55;12.90;;;;;;;7.92;nan;101846.19;4992897;28;20483;-76
2021/11/20 02:16:45;;;;;;;21.05;11.93;;;;;;;7.96;nan;101847.69;4992696;28;20439;-75
2021/11/20 02:19:15;;;;;;;20.90;12.50;;;;;;;7.94;nan;101844.28;4992945;28;20022;-76
2021/11/20 02:21:52;;;;;;;19.70;11.80;;;;;;;7.89;nan;101838.50;4991656;28;20018;-76
2021/11/20 02:24:17;;;;;;;22.27;12.57;;;;;;;7.95;nan;101838.06;4992681;28;20391;-76
2021/11/20 02:26:43;;;;;;;19.77;12.33;;;;;;;7.91;nan;101835.75;4991009;28;20026;-75
2021/11/20 02:29:12;;;;;;;18.92;12.30;;;;;;;7.91;nan;101833.94;4994584;28;20038;-76
2021/11/20 02:31:41;;;;;;;19.33;11.88;;;;;;;7.91;nan;101830.47;4997506;28;20066;-76
2021/11/20 02:34:06;;;;;;;16.95;11.32;;;;;;;7.87;nan;101830.69;4993785;28;20490;-76
2021/11/20 02:36:32;;;;;;;17.23;11.15;;;;;;;7.90;nan;101829.63;4992547;28;20064;-75
2021/11/20 02:39:13;;;;;;;19.48;11.75;;;;;;;7.94;nan;101825.03;4990794;28;20097;-76
2021/11/20 02:41:40;;;;;;;17.48;11.02;;;;;;;7.86;nan;101826.38;4989800;28;20034;-76
2021/11/20 02:44:07;;;;;;;20.02;12.18;;;;;;;7.88;nan;101821.00;4996980;28;20137;-78
2021/11/20 02:46:36;;;;;;;18.02;11.10;;;;;;;7.90;nan;101821.72;4998392;28;20038;-76
2021/11/20 02:49:03;;;;;;;17.67;10.20;;;;;;;7.88;nan;101816.56;4990751;28;20030;-78
2021/11/20 02:51:41;;;;;;;17.30;10.38;;;;;;;7.88;nan;101813.09;4994939;28;20030;-78
2021/11/20 02:54:22;;;;;;;20.02;11.32;;;;;;;7.90;nan;101808.56;4989786;28;20581;-78
2021/11/20 02:56:53;;;;;;;17.48;10.52;;;;;;;7.86;nan;101807.06;4988891;28;20049;-77
2021/11/20 02:59:19;;;;;;;14.57;9.00;;;;;;;7.87;nan;101800.88;4991594;28;20038;-78
2021/11/20 03:01:45;;;;;;;21.73;11.55;;;;;;;7.94;nan;101801.31;4995581;28;20220;-78
2021/11/20 03:04:14;;;;;;;21.05;11.82;;;;;;;7.88;nan;101789.38;4991018;28;20031;-77
2021/11/20 03:06:40;;;;;;;21.50;11.75;;;;;;;7.92;nan;101790.88;4990096;28;20121;-78
2021/11/20 03:09:07;;;;;;;20.45;11.98;;;;;;;7.85;nan;101792.22;4990962;28;20037;-78
2021/11/20 03:11:33;;;;;;;20.73;12.85;;;;;;;7.84;nan;101786.13;4991360;28;20034;-78
2021/11/20 03:14:04;;;;;;;22.15;12.43;;;;;;;7.88;nan;101787.59;4991087;28;20034;-78
2021/11/20 03:16:42;;;;;;;20.30;11.05;;;;;;;7.89;nan;101785.81;4992796;28;20533;-78
2021/11/20 03:19:08;;;;;;;22.02;12.88;;;;;;;7.93;nan;101781.19;5015021;23;20038;-84
2021/11/20 03:21:36;;;;;;;21.25;12.73;;;;;;;7.92;nan;101775.06;5015637;28;20048;-84
2021/11/20 03:24:04;;;;;;;21.83;12.35;;;;;;;7.90;nan;101774.31;5015212;28;20022;-83
2021/11/20 03:26:30;;;;;;;28.45;13.63;;;;;;;7.96;nan;101765.16;5018791;28;20041;-84
2021/11/20 03:28:55;;;;;;;22.23;12.60;;;;;;;7.97;nan;101765.06;5021072;28;20089;-85
2021/11/20 03:31:20;;;;;;;26.98;13.15;;;;;;;7.96;nan;101771.28;5016581;28;20052;-84
2021/11/20 03:33:46;;;;;;;26.42;14.27;;;;;;;7.96;nan;101766.03;5014786;28;20041;-84
2021/11/20 03:36:12;;;;;;;25.67;13.38;;;;;;;7.93;nan;101758.31;5021165;28;20038;-84
2021/11/20 03:38:38;;;;;;;24.35;13.70;;;;;;;7.88;nan;101766.53;5014305;28;20033;-83
2021/11/20 03:41:05;;;;;;;25.30;12.35;;;;;;;7.93;nan;101770.63;5015970;28;20037;-82
2021/11/20 03:43:30;;;;;;;24.58;12.90;;;;;;;7.90;nan;101771.69;5015606;28;20068;-84
2021/11/20 03:45:56;;;;;;;24.73;12.65;;;;;;;7.90;nan;101766.44;5014607;28;20034;-84
2021/11/20 03:48:21;;;;;;;25.17;12.93;;;;;;;7.91;nan;101751.47;5014351;28;20080;-83
2021/11/20 03:50:47;;;;;;;26.25;13.07;;;;;;;7.97;nan;101751.06;5017976;28;20041;-83
2021/11/20 03:53:13;;;;;;;25.77;13.90;;;;;;;7.95;nan;101750.31;5015563;28;20037;-84
2021/11/20 03:55:42;;;;;;;26.13;13.85;;;;;;;7.89;nan;101746.31;5013120;28;20113;-84
2021/11/20 03:58:09;;;;;;;23.15;12.45;;;;;;;7.86;nan;101746.50;5014388;28;20026;-84
2021/11/20 04:00:43;;;;;;;22.60;11.82;;;;;;;7.83;nan;101744.94;5015428;28;20037;-84
2021/11/20 04:03:09;;;;;;;21.88;11.70;;;;;;;7.76;nan;101751.56;5018790;28;20121;-84
2021/11/20 04:05:34;;;;;;;20.88;10.73;;;;;;;7.76;nan;101748.91;5013175;28;20057;-83
2021/11/20 04:08:00;;;;;;;20.75;11.45;;;;;;;7.83;nan;101749.34;5014324;28;20037;-84
2021/11/20 04:10:26;;;;;;;23.58;12.50;;;;;;;7.90;nan;101749.78;5021814;28;20488;-83
2021/11/20 04:12:53;;;;;;;22.45;11.85;;;;;;;7.87;nan;101743.78;5015260;28;20025;-84
2021/11/20 04:15:22;;;;;;;20.98;11.30;;;;;;;7.89;nan;101743.69;5016774;28;20415;-83
2021/11/20 04:17:48;;;;;;;20.70;10.88;;;;;;;7.85;nan;101737.78;5022405;28;20491;-84
2021/11/20 04:20:16;;;;;;;22.70;11.60;;;;;;;7.87;nan;101735.88;5020636;28;20126;-83
2021/11/20 04:22:42;;;;;;;21.90;11.48;;;;;;;7.93;nan;101742.50;5010697;28;20034;-82
2021/11/20 04:25:10;;;;;;;22.45;11.30;;;;;;;7.92;nan;101740.84;5021964;28;20091;-83
2021/11/20 04:27:35;;;;;;;19.00;10.98;;;;;;;7.88;nan;101737.56;5019271;28;20034;-80
2021/11/20 04:30:01;;;;;;;23.50;11.85;;;;;;;7.91;nan;101740.94;5016576;28;20026;-80
2021/11/20 04:32:26;;;;;;;23.60;11.50;;;;;;;7.87;nan;101735.88;5023739;28;20030;-83
2021/11/20 04:34:52;;;;;;;20.83;11.25;;;;;;;7.84;nan;101735.22;5018180;28;20034;-83
2021/11/20 04:37:18;;;;;;;17.50;9.38;;;;;;;7.81;nan;101735.44;5017097;28;20054;-84
2021/11/20 04:39:44;;;;;;;21.65;9.50;;;;;;;7.77;nan;101733.97;5022528;28;20034;-82
2021/11/20 04:42:09;;;;;;;21.63;10.70;;;;;;;7.84;nan;101724.69;5028317;28;20061;-82
2021/11/20 04:44:35;;;;;;;19.70;9.75;;;;;;;7.88;nan;101727.00;5020008;28;20477;-81
2021/11/20 04:47:00;;;;;;;19.52;10.05;;;;;;;7.93;nan;101723.22;5018025;28;20038;-82
2021/11/20 04:49:29;;;;;;;18.45;10.63;;;;;;;7.89;nan;101719.97;5026205;28;20073;-82
2021/11/20 04:51:54;;;;;;;17.88;10.13;;;;;;;7.90;nan;101726.91;5022688;28;20068;-82
2021/11/20 04:54:19;;;;;;;19.70;9.82;;;;;;;7.91;nan;101719.84;5015967;28;20030;-81
2021/11/20 04:56:45;;;;;;;17.40;9.25;;;;;;;7.91;nan;101730.38;5021699;28;20085;-81
2021/11/20 04:59:11;;;;;;;14.93;8.15;;;;;;;7.90;nan;101723.44;5010163;28;20041;-82
2021/11/20 05:01:37;;;;;;;18.55;9.48;;;;;;;7.96;nan;101721.25;5020118;28;20487;-82
2021/11/20 05:04:02;;;;;;;17.23;9.50;;;;;;;8.00;nan;101719.22;5017778;28;20092;-83
2021/11/20 05:06:28;;;;;;;18.58;9.90;;;;;;;7.98;nan;101714.06;5019826;28;20202;-82
2021/11/20 05:08:59;;;;;;;18.10;9.50;;;;;;;8.03;nan;101711.97;5013149;28;20057;-82
2021/11/20 05:11:26;;;;;;;16.08;9.63;;;;;;;7.95;nan;101709.00;5019767;28;20041;-83
2021/11/20 05:13:51;;;;;;;14.00;7.85;;;;;;;7.94;nan;101712.59;5012006;28;20038;-81
2021/11/20 05:16:17;;;;;;;14.18;7.68;;;;;;;7.93;nan;101712.69;5009359;28;20125;-81
2021/11/20 05:18:43;;;;;;;15.60;8.73;;;;;;;8.00;nan;101709.53;5022917;28;20068;-81
2021/11/20 05:21:08;;;;;;;21.73;10.75;;;;;;;8.01;nan;101703.34;5011761;28;20567;-81
2021/11/20 05:23:36;;;;;;;18.42;9.65;;;;;;;7.94;nan;101701.22;5016224;28;20083;-82
2021/11/20 05:26:03;;;;;;;16.85;9.50;;;;;;;7.91;nan;101701.44;5014691;28;20550;-82
2021/11/20 05:28:28;;;;;;;14.57;7.95;;;;;;;7.91;nan;101690.88;5015738;28;20128;-82
2021/11/20 05:30:54;;;;;;;13.70;7.22;;;;;;;7.95;nan;101701.09;5016499;28;20053;-82
2021/11/20 05:33:31;;;;;;;13.23;7.35;;;;;;;7.96;nan;101689.66;5014975;28;20053;-82
2021/11/20 05:35:58;;;;;;;14.63;7.32;;;;;;;7.96;nan;101687.00;5018896;28;20030;-82
2021/11/20 05:38:23;;;;;;;14.88;7.40;;;;;;;7.95;nan;101682.66;5024493;28;20033;-83
2021/11/20 05:40:48;;;;;;;14.80;8.52;;;;;;;7.98;nan;101679.81;5014953;28;20538;-83
2021/11/20 05:43:18;;;;;;;12.80;7.40;;;;;;;7.95;nan;101693.22;5013996;28;20045;-82
2021/11/20 05:45:47;;;;;;;10.07;6.13;;;;;;;7.96;nan;101688.78;5025288;28;20030;-83
2021/11/20 05:48:12;;;;;;;10.30;6.00;;;;;;;7.96;nan;101683.50;5014555;28;20060;-82
2021/11/20 05:50:38;;;;;;;11.73;7.40;;;;;;;7.90;nan;101682.16;5016461;28;20040;-82
2021/11/20 05:53:12;;;;;;;14.15;7.63;;;;;;;7.88;nan;101684.88;5035615;28;20518;-82
2021/11/20 05:55:39;;;;;;;9.23;5.78;;;;;;;7.91;nan;101685.63;5016786;28;20037;-83
2021/11/20 05:58:07;;;;;;;10.07;6.00;;;;;;;7.90;nan;101689.22;5013612;28;20030;-83
2021/11/20 06:00:35;;;;;;;12.32;6.35;;;;;;;7.97;nan;101686.03;5014686;28;20049;-82
2021/11/20 06:03:03;;;;;;;11.02;7.53;;;;;;;7.97;nan;101682.56;5014886;28;20026;-82
2021/11/20 06:05:30;;;;;;;11.25;7.30;;;;;;;7.92;nan;101685.53;5015440;28;20403;-80
2021/11/20 06:07:55;;;;;;;12.63;7.28;;;;;;;7.94;nan;101682.78;5014119;28;20535;-82
2021/11/20 06:10:21;;;;;;;15.05;8.27;;;;;;;7.91;nan;101685.63;5014065;28;20116;-81
2021/11/20 06:12:46;;;;;;;13.70;8.52;;;;;;;7.95;nan;101685.31;5015528;28;20073;-82
2021/11/20 06:15:11;;;;;;;13.48;8.40;;;;;;;7.98;nan;101686.88;5014271;28;20192;-82
2021/11/20 06:17:37;;;;;;;14.95;9.57;;;;;;;7.97;nan;101680.78;5023507;28;20110;-81
2021/11/20 06:20:05;;;;;;;14.57;9.27;;;;;;;7.99;nan;101688.59;5016063;28;20234;-82
2021/11/20 06:22:31;;;;;;;16.52;9.80;;;;;;;7.97;nan;101695.75;5005333;28;20034;-82
2021/11/20 06:24:57;;;;;;;14.77;8.68;;;;;;;7.96;nan;101692.28;5013197;28;20045;-81
2021/11/20 06:27:23;;;;;;;13.07;8.10;;;;;;;7.96;nan;101692.28;5014694;28;20504;-83
2021/11/20 06:29:49;;;;;;;11.50;7.28;;;;;;;7.99;nan;101696.47;5016116;28;20030;-82
2021/11/20 06:32:14;;;;;;;16.90;9.52;;;;;;;8.05;nan;101696.03;5013308;28;20030;-82
2021/11/20 06:34:40;;;;;;;13.85;8.65;;;;;;;7.94;nan;101694.16;5014717;28;20038;-80
2021/11/20 06:37:05;;;;;;;18.50;10.18;;;;;;;7.94;nan;101690.69;5027642;28;20045;-84
2021/11/20 06:39:30;;;;;;;16.95;9.85;;;;;;;7.90;nan;101687.41;5017238;28;20037;-82
2021/11/20 06:41:57;;;;;;;12.55;8.52;;;;;;;7.93;nan;101696.91;5014559;28;20511;-82
2021/11/20 06:44:23;;;;;;;14.65;7.80;;;;;;;7.93;nan;101689.84;5018722;28;20038;-80
2021/11/20 06:46:48;;;;;;;11.15;7.28;;;;;;;7.96;nan;101688.78;5017500;28;20046;-81
2021/11/20 06:49:15;;;;;;;12.75;8.15;;;;;;;7.98;nan;101687.72;5012912;28;20048;-82
2021/11/20 06:51:40;;;;;;;10.07;6.80;;;;;;;7.96;nan;101694.91;5025595;28;20030;-82
2021/11/20 06:54:05;;;;;;;9.48;5.63;;;;;;;7.97;nan;101688.69;5032359;28;20274;-81
2021/11/20 06:56:43;;;;;;;8.93;5.82;;;;;;;7.94;nan;101688.06;5028565;28;20383;-80
2021/11/20 06:59:17;;;;;;;9.20;6.03;;;;;;;7.95;nan;101685.31;5020874;28;20101;-81
2021/11/20 07:01:45;;;;;;;7.50;4.65;;;;;;;7.99;nan;101688.59;5015767;28;20333;-81
2021/11/20 07:04:17;;;;;;;8.07;5.50;;;;;;;8.02;nan;101688.38;5015294;28;20034;-81
2021/11/20 07:06:48;;;;;;;10.48;5.65;;;;;;;8.05;nan;101691.63;5013102;28;20181;-81
2021/11/20 07:09:14;;;;;;;7.53;4.47;;;;;;;8.07;nan;101692.34;5014754;28;20504;-81
2021/11/20 07:11:40;;;;;;;8.25;4.80;;;;;;;8.10;nan;101691.28;5014997;28;20168;-81
2021/11/20 07:14:06;;;;;;;9.40;5.43;;;;;;;8.13;nan;101698.13;5013627;28;20062;-80
2021/11/20 07:16:32;;;;;;;10.10;5.88;;;;;;;8.15;nan;101693.59;5013323;28;20038;-82
2021/11/20 07:19:00;;;;;;;12.82;7.07;;;;;;;8.12;nan;101689.41;5024467;28;20033;-81
2021/11/20 07:21:27;;;;;;;10.15;6.65;;;;;;;8.12;nan;101691.19;5014313;28;20077;-81
2021/11/20 07:23:54;;;;;;;9.85;6.22;;;;;;;8.15;nan;101680.44;5012851;28;20038;-82
2021/11/20 07:26:20;;;;;;;11.05;6.88;;;;;;;8.19;nan;101677.47;5011981;28;20037;-84
2021/11/20 07:28:46;;;;;;;9.27;6.65;;;;;;;8.20;nan;101689.72;5013426;28;20034;-84
2021/11/20 07:31:12;;;;;;;9.07;5.88;;;;;;;8.21;nan;101683.50;5013117;28;20124;-84
2021/11/20 07:33:38;;;;;;;9.75;6.07;;;;;;;8.24;nan;101691.16;5019081;28;20053;-85
2021/11/20 07:36:07;;;;;;;10.55;6.03;;;;;;;8.29;nan;101683.81;5025724;28;20077;-84
2021/11/20 07:38:37;;;;;;;9.68;6.07;;;;;;;8.28;nan;101671.56;5016723;28;20231;-83
2021/11/20 07:41:03;;;;;;;9.75;5.40;;;;;;;8.32;nan;101680.09;5018107;28;20596;-84
2021/11/20 07:43:29;;;;;;;9.02;6.15;;;;;;;8.36;nan;101672.81;5018799;28;20092;-83
2021/11/20 07:45:54;;;;;;;12.75;7.82;;;;;;;8.42;nan;101672.41;5013512;28;20038;-83
2021/11/20 07:48:23;;;;;;;14.15;9.00;;;;;;;8.36;nan;101664.91;5018263;28;20260;-82
2021/11/20 07:50:51;;;;;;;13.57;8.95;;;;;;;8.32;nan;101664.28;5019159;28;20244;-82
2021/11/20 07:53:17;;;;;;;12.98;8.80;;;;;;;8.32;nan;101664.28;5032632;28;20053;-84
2021/11/20 07:55:44;;;;;;;15.80;9.05;;;;;;;8.45;nan;101653.75;5020037;28;20044;-84
2021/11/20 07:58:09;;;;;;;15.02;9.93;;;;;;;8.44;nan;101655.53;5016538;28;20041;-83
2021/11/20 08:00:37;;;;;;;12.88;8.05;;;;;;;8.39;nan;101647.09;5017903;28;20492;-84
2021/11/20 08:03:04;;;;;;;13.73;8.75;;;;;;;8.36;nan;101641.19;5017872;28;20113;-83
2021/11/20 08:05:29;;;;;;;12.80;8.52;;;;;;;8.45;nan;101645.84;5021180;28;20034;-83
2021/11/20 08:07:55;;;;;;;12.30;8.10;;;;;;;8.53;nan;101646.09;5019284;28;20038;-82
2021/11/20 08:10:28;;;;;;;13.23;8.60;;;;;;;8.58;nan;101644.00;5036755;28;20063;-82
2021/11/20 08:12:55;;;;;;;12.75;8.25;;;;;;;8.61;nan;101643.78;5017127;28;20060;-83
2021/11/20 08:15:21;;;;;;;12.98;8.05;;;;;;;8.63;nan;101636.59;5020062;28;20034;-83
2021/11/20 08:17:47;;;;;;;10.25;7.00;;;;;;;8.65;nan;101639.97;5020504;28;20029;-83
2021/11/20 08:20:16;;;;;;;11.63;7.53;;;;;;;8.73;nan;101633.28;5017093;28;20065;-82
2021/11/20 08:22:42;;;;;;;11.45;7.22;;;;;;;8.78;nan;101639.06;5018330;28;20053;-83
2021/11/20 08:25:12;;;;;;;13.98;7.80;;;;;;;8.81;nan;101625.66;5019355;28;20133;-84
2021/11/20 08:27:38;;;;;;;11.07;6.97;;;;;;;8.84;nan;101630.69;5018289;28;20128;-84
2021/11/20 08:30:05;;;;;;;13.20;7.90;;;;;;;8.85;nan;101627.94;5018369;28;20507;-83
2021/11/20 08:32:31;;;;;;;14.77;8.85;;;;;;;8.98;nan;101627.88;5019788;28;20038;-81
2021/11/20 08:34:58;;;;;;;13.57;8.82;;;;;;;8.97;nan;101620.09;5018248;28;20065;-83
2021/11/20 08:37:24;;;;;;;13.43;7.57;;;;;;;9.02;nan;101624.06;5020761;28;20042;-82
2021/11/20 08:39:53;;;;;;;11.52;7.57;;;;;;;9.03;nan;101620.44;5017828;28;20041;-82
2021/11/20 08:42:18;;;;;;;11.95;7.68;;;;;;;9.11;nan;101611.97;5019202;28;20032;-82
2021/11/20 08:44:44;;;;;;;12.35;8.10;;;;;;;9.10;nan;101610.28;5019788;28;20058;-82
2021/11/20 08:47:09;;;;;;;14.45;8.35;;;;;;;9.13;nan;101603.00;5034137;28;20061;-83
2021/11/20 08:49:34;;;;;;;14.43;8.88;;;;;;;9.16;nan;101606.34;5019443;28;20038;-82
2021/11/20 08:52:00;;;;;;;14.55;9.07;;;;;;;9.20;nan;101600.72;5033503;28;20076;-83
2021/11/20 08:54:25;;;;;;;12.30;7.85;;;;;;;9.23;nan;101597.00;5023170;28;20074;-82
2021/11/20 08:56:55;;;;;;;11.52;7.63;;;;;;;9.28;nan;101592.22;5017384;28;20040;-82
2021/11/20 08:59:22;;;;;;;10.43;7.00;;;;;;;9.44;nan;101594.50;5022681;28;20046;-81
2021/11/20 09:02:10;;;;;;;12.57;8.00;;;;;;;9.54;nan;101592.84;5021552;28;20105;-82
2021/11/20 09:04:49;;;;;;;13.05;8.52;;;;;;;9.44;nan;101600.66;5001575;28;20035;-82
2021/11/20 09:07:29;;;;;;;11.05;7.28;;;;;;;9.51;nan;101603.63;5002701;28;20520;-83
2021/11/20 09:10:00;;;;;;;;;;;;;;;9.53;nan;101597.31;5018813;28;20041;-82
2021/11/20 09:12:34;;;;;;;12.80;8.25;;;;;;;9.55;nan;101597.16;5020759;28;19925;-81
2021/11/20 09:15:04;;;;;;;;;;;;;;;9.65;nan;101594.66;5022260;28;20080;-82
2021/11/20 09:17:29;;;;;;;13.80;8.73;;;;;;;9.73;nan;101592.28;5029541;28;19971;-82
2021/11/20 09:19:55;;;;;;;785.80;724.20;;;;;;;9.71;nan;101594.19;5021584;28;20412;-83
2021/11/20 09:22:21;;;;;;;13.57;8.60;;;;;;;9.78;nan;101600.66;5022311;28;20833;-82
2021/11/20 09:24:48;;;;;;;16.75;9.23;;;;;;;9.71;nan;101595.03;5022194;28;20049;-83
2021/11/20 09:27:15;;;;;;;12.45;7.80;;;;;;;9.72;nan;101585.28;5020452;28;20045;-81
2021/11/20 09:29:41;;;;;;;14.85;9.48;;;;;;;9.81;nan;101589.84;5022585;28;20447;-82
2021/11/20 09:32:08;;;;;;;13.40;9.50;;;;;;;9.83;nan;101593.22;5022562;28;20508;-83
2021/11/20 09:34:34;;;;;;;13.60;8.60;;;;;;;9.94;nan;101587.94;5021872;28;20101;-82
2021/11/20 09:37:01;;;;;;;17.50;10.82;;;;;;;9.94;nan;101589.75;5022417;28;20026;-83
2021/11/20 09:39:30;;;;;;;15.68;10.35;;;;;;;10.02;nan;101583.84;5021911;28;20033;-81
2021/11/20 09:42:17;;;;;;;19.38;11.45;;;;;;;10.04;nan;101587.22;5023981;28;20053;-83
2021/11/20 09:44:55;;;;;;;15.13;10.18;;;;;;;9.97;nan;101582.41;5022079;28;20034;-82
2021/11/20 09:47:51;;;;;;;14.35;9.90;;;;;;;10.02;nan;101582.03;5021455;28;20038;-82
2021/11/20 09:50:32;;;;;;;17.40;11.00;;;;;;;9.91;nan;101580.22;4983393;28;20045;-82
2021/11/20 09:52:58;;;;;;;;;;;;;;;9.93;nan;101578.31;5011557;28;20041;-83
2021/11/20 09:55:31;;;;;;;14.93;9.73;;;;;;;10.02;nan;101584.69;5021561;28;19917;-83
2021/11/20 09:58:02;;;;;;;17.83;10.65;;;;;;;10.12;nan;101577.69;5019371;28;20054;-81
2021/11/20 10:00:43;;;;;;;16.45;10.63;;;;;;;10.17;nan;101580.78;5016508;28;20065;-84
2021/11/20 10:03:12;;;;;;;18.27;11.53;;;;;;;10.20;nan;101583.22;5020950;28;20042;-82
2021/11/20 10:05:43;;;;;;;;;;;;;;;10.24;nan;101577.66;5011367;28;20030;-82
2021/11/20 10:08:22;;;;;;;17.55;11.18;;;;;;;10.34;nan;101574.19;5018374;28;19918;-83
2021/11/20 10:11:00;;;;;;;17.58;11.73;;;;;;;10.31;nan;101574.44;5020322;28;20119;-83
2021/11/20 10:13:30;;;;;;;;;;;;;;;10.25;nan;101571.41;5020880;28;20546;-82
2021/11/20 10:16:04;;;;;;;;;;;;;;;10.21;nan;101570.84;5019023;28;20000;-82
2021/11/20 10:18:48;;;;;;;17.30;10.75;;;;;;;10.33;nan;101561.09;5030549;28;19926;-83
2021/11/20 10:21:37;;;;;;;17.48;10.98;;;;;;;10.37;nan;101560.72;5020873;28;20044;-81
2021/11/20 10:24:38;;;;;;;16.45;10.80;;;;;;;10.30;nan;101564.84;5011314;28;20034;-83
2021/11/20 10:27:29;;;;;;;15.68;9.95;;;;;;;10.29;nan;101564.94;5021777;28;20034;-82
2021/11/20 10:30:22;;;;;;;13.25;8.95;;;;;;;10.33;nan;101553.16;5022402;28;20038;-82
2021/11/20 10:32:50;;;;;;;;;;;;;;;10.34;nan;101542.44;5022022;28;20081;-81
2021/11/20 10:35:42;;;;;;;14.68;8.63;;;;;;;10.42;nan;101552.44;5028726;28;19921;-83
2021/11/20 10:38:07;;;;;;;;;;;;;;;10.56;nan;101543.38;5021169;28;20022;-83
2021/11/20 10:40:47;;;;;;;17.80;10.60;;;;;;;10.64;nan;101535.63;5022291;28;19921;-83
2021/11/20 10:43:22;;;;;;;19.63;12.00;;;;;;;10.41;nan;101532.22;5024685;28;20327;-82
2021/11/20 10:46:21;;;;;;;16.65;10.80;;;;;;;10.41;nan;101530.41;5022742;28;20451;-83
2021/11/20 10:49:02;;;;;;;15.00;9.18;;;;;;;10.45;nan;101524.88;5022370;28;20454;-82
2021/11/20 10:51:36;;;;;;;17.98;11.30;;;;;;;10.59;nan;101516.66;5026449;28;20038;-81
2021/11/20 10:54:27;;;;;;;16.10;10.40;;;;;;;10.57;nan;101515.94;5019970;28;20050;-83
2021/11/20 10:57:09;;;;;;;17.73;10.32;;;;;;;10.65;nan;101512.66;5012840;28;20062;-83
2021/11/20 10:59:40;;;;;;;17.25;10.82;;;;;;;10.57;nan;101502.72;5020131;28;20030;-82
2021/11/20 11:02:31;;;;;;;20.33;11.50;;;;;;;10.57;nan;101497.41;5019820;28;20030;-83
2021/11/20 11:05:15;;;;;;;;;;;;;;;10.57;nan;101492.97;5021003;28;20029;-82
2021/11/20 11:08:30;;;;;;;14.88;9.48;;;;;;;10.59;nan;101484.91;5021244;28;20322;-82
2021/11/20 11:11:15;;;;;;;;;;;;;;;10.48;nan;101488.44;4969712;28;20437;-82
2021/11/20 11:13:46;;;;;;;234.00;216.13;;;;;;;10.61;nan;101477.69;5006519;28;19968;-84
2021/11/20 11:16:19;;;;;;;15.20;9.38;;;;;;;10.67;nan;101465.75;5021857;28;20048;-82
2021/11/20 11:18:46;;;;;;;;;;;;;;;10.56;nan;101471.97;5015815;28;20096;-81
2021/11/20 11:21:34;;;;;;;16.55;9.27;;;;;;;10.70;nan;101469.00;5022011;28;19917;-82
2021/11/20 11:24:18;;;;;;;;;;;;;;;10.80;nan;101461.09;5021463;28;20050;-83
2021/11/20 11:27:38;;;;;;;16.92;9.90;;;;;;;10.80;nan;101459.28;5018956;28;20295;-85
2021/11/20 11:30:11;;;;;;;13.50;8.40;;;;;;;10.92;nan;101446.00;4925815;29;20036;-83
2021/11/20 11:32:44;;;;;;;13.45;8.88;;;;;;;11.00;nan;101435.56;4990201;28;20038;-82
2021/11/20 11:35:18;;;;;;;14.65;9.50;;;;;;;11.07;nan;101436.72;5023870;28;20029;-84
2021/11/20 11:37:54;;;;;;;17.63;10.80;;;;;;;10.93;nan;101418.56;5023034;28;20100;-85
2021/11/20 11:40:41;;;;;;;13.82;9.70;;;;;;;11.03;nan;101414.13;5019593;28;20431;-84
2021/11/20 11:43:17;;;;;;;17.17;10.73;;;;;;;10.86;nan;101410.31;5022242;28;20036;-83
2021/11/20 11:45:46;;;;;;;13.07;9.00;;;;;;;11.01;nan;101406.34;5020121;28;20440;-84
2021/11/20 11:48:26;;;;;;;17.95;11.50;;;;;;;10.90;nan;101400.31;5021629;28;20406;-84
2021/11/20 11:51:14;;;;;;;14.38;9.20;;;;;;;11.18;nan;101390.81;5022628;28;20042;-82
2021/11/20 11:53:57;;;;;;;15.38;10.38;;;;;;;11.21;nan;101387.88;5016192;28;20478;-84
2021/11/20 11:56:30;;;;;;;13.85;9.30;;;;;;;11.13;nan;101375.31;5017879;28;20389;-84